Ottawa Gatineau Airport
CYND : now visible

Airfield :











YOU CAN JOIN US ON...

 
LOGIN :

Register | Disclaimer

   EN    FR    IT 

 









Legend :    VFR   Marginal VFR   IFR   Intensive IFR   Very Intensive IFR
Visi :
Ceiling :
>= 8 km
>= 3000ft
5 to 8 km
1000 to 3000 ft
1500m to 5 km
500 to 1000 ft
800 to 1500m
200 to 500 ft
< 800m
< 200 ft
Symbols :   Thunderstorms  Fog  Heavy snow  Heavy precipitations  Wind > 20 kt






- Airport Elevation : 211 ft
- IATA code : YND


CYND - Ottawa Gatineau

CURRENT METAR :
  • 101331Z 33010G16KT 300V360 7SM SCT013 BKN033 03/02 A2924 RMK SC4SC3 SLP907

EXPIRED METARs :
  • 101300Z 33008G15KT 5SM -RA BKN013 BKN025 OVC078 02/01 A2922 RMK SC5SC2AC1 SLP898
  • 101245Z 31007KT 290V350 5SM -RA BKN015 OVC024 02/01 A2921 RMK SC6SC2 SLP895
  • 101200Z 30007KT 6SM -SN BKN012 OVC048 01/01 A2919 RMK SC6SC2 SLP888
  • 101100Z 27007KT 5SM -SN BKN018 BKN043 OVC120 01/00 A2916 RMK SC5SC2AC1 SLP877

TAF TAF CYND
Valid from the 10 at 13:00 until the 11 at 01:00 UTC


101239Z 1013/1101 30007KT 6SM -SN SCT012 OVC050
TEMPO 1013/1015 5SM -SNRA BR BKN012 OVC050
FM101500 32015G25KT 4SM -SHSNRA BR BKN012 OVC030
TEMPO 1015/1018 P6SM -SHRA BKN030 OVC060
FM101800 31015G25KT P6SM -SHRA SCT025 OVC040
TEMPO 1018/1024 BKN020 BKN040
BECMG 1021/1023 30012G22KT RMK NXT FCST BY 101800Z



MET'MAP, your aeronautical weather chart ! - Copyright ORBIFLY December 2007 - Disclaimer

ORBIFLY MET'MAP TEAM :

Programming & Development : Alexandra Zaïnal
Concept & original design : Baudouin d'Aumeries
Assistance for programming : Marc-Olivier Méhu
Technical & hardware support : Manuel Goepfert

Contact : metmap@orbifly.com




SOURCES & CREDITS :

   NOAA       Earth
Advisory